sensor_id;sensor_type;location;lat;lon;timestamp;pressure;altitude;pressure_sealevel;temperature
49785;BMP280;35679;38.732;-121.358;2022-08-20T00:02:07;100134.84;;;31.26
49785;BMP280;35679;38.732;-121.358;2022-08-20T00:04:57;100137.22;;;31.27
49785;BMP280;35679;38.732;-121.358;2022-08-20T00:07:46;100135.78;;;31.30
49785;BMP280;35679;38.732;-121.358;2022-08-20T00:10:38;100127.00;;;31.33
49785;BMP280;35679;38.732;-121.358;2022-08-20T00:13:36;100128.28;;;31.35
49785;BMP280;35679;38.732;-121.358;2022-08-20T00:16:29;100132.31;;;31.38
49785;BMP280;35679;38.732;-121.358;2022-08-20T00:19:20;100127.03;;;31.41
49785;BMP280;35679;38.732;-121.358;2022-08-20T00:22:13;100124.78;;;31.43
49785;BMP280;35679;38.732;-121.358;2022-08-20T00:25:04;100123.31;;;31.46
49785;BMP280;35679;38.732;-121.358;2022-08-20T00:27:55;100121.88;;;31.48
49785;BMP280;35679;38.732;-121.358;2022-08-20T00:30:46;100121.09;;;31.48
49785;BMP280;35679;38.732;-121.358;2022-08-20T00:33:36;100115.03;;;31.51
49785;BMP280;35679;38.732;-121.358;2022-08-20T00:36:26;100118.25;;;31.53
49785;BMP280;35679;38.732;-121.358;2022-08-20T00:39:19;100098.03;;;31.54
49785;BMP280;35679;38.732;-121.358;2022-08-20T00:42:09;100095.78;;;31.56
49785;BMP280;35679;38.732;-121.358;2022-08-20T00:44:58;100110.72;;;31.58
49785;BMP280;35679;38.732;-121.358;2022-08-20T00:47:48;100100.28;;;31.60
49785;BMP280;35679;38.732;-121.358;2022-08-20T00:50:38;100097.25;;;31.62
49785;BMP280;35679;38.732;-121.358;2022-08-20T00:53:28;100098.84;;;31.63
49785;BMP280;35679;38.732;-121.358;2022-08-20T00:56:18;100087.63;;;31.64
49785;BMP280;35679;38.732;-121.358;2022-08-20T00:59:11;100097.09;;;31.67
49785;BMP280;35679;38.732;-121.358;2022-08-20T01:02:05;100096.78;;;31.68
49785;BMP280;35679;38.732;-121.358;2022-08-20T01:04:56;100092.63;;;31.71
49785;BMP280;35679;38.732;-121.358;2022-08-20T01:07:45;100088.75;;;31.72
49785;BMP280;35679;38.732;-121.358;2022-08-20T01:10:40;100090.03;;;31.74
49785;BMP280;35679;38.732;-121.358;2022-08-20T01:13:35;100099.03;;;31.75
49785;BMP280;35679;38.732;-121.358;2022-08-20T01:16:29;100090.53;;;31.76
49785;BMP280;35679;38.732;-121.358;2022-08-20T01:19:26;100086.34;;;31.79
49785;BMP280;35679;38.732;-121.358;2022-08-20T01:22:23;100090.69;;;31.80
49785;BMP280;35679;38.732;-121.358;2022-08-20T01:28:55;100087.63;;;31.81
49785;BMP280;35679;38.732;-121.358;2022-08-20T01:31:46;100083.78;;;31.82
49785;BMP280;35679;38.732;-121.358;2022-08-20T01:34:35;100080.72;;;31.84
49785;BMP280;35679;38.732;-121.358;2022-08-20T01:37:25;100082.34;;;31.85
49785;BMP280;35679;38.732;-121.358;2022-08-20T01:40:49;100083.94;;;31.86
49785;BMP280;35679;38.732;-121.358;2022-08-20T01:43:33;100085.53;;;31.87
49785;BMP280;35679;38.732;-121.358;2022-08-20T01:46:33;100087.13;;;31.88
49785;BMP280;35679;38.732;-121.358;2022-08-20T01:49:32;100085.53;;;31.87
49785;BMP280;35679;38.732;-121.358;2022-08-20T01:52:54;100085.22;;;31.88
49785;BMP280;35679;38.732;-121.358;2022-08-20T01:55:45;100090.69;;;31.88
49785;BMP280;35679;38.732;-121.358;2022-08-20T01:58:38;100077.84;;;31.89
49785;BMP280;35679;38.732;-121.358;2022-08-20T02:01:35;100084.13;;;31.89
49785;BMP280;35679;38.732;-121.358;2022-08-20T02:04:34;100081.38;;;31.89
49785;BMP280;35679;38.732;-121.358;2022-08-20T02:07:23;100081.38;;;31.89
49785;BMP280;35679;38.732;-121.358;2022-08-20T02:10:15;100084.91;;;31.90
49785;BMP280;35679;38.732;-121.358;2022-08-20T02:13:06;100085.69;;;31.90
49785;BMP280;35679;38.732;-121.358;2022-08-20T02:15:57;100084.13;;;31.89
49785;BMP280;35679;38.732;-121.358;2022-08-20T02:18:49;100084.13;;;31.89
49785;BMP280;35679;38.732;-121.358;2022-08-20T02:21:51;100081.69;;;31.88
49785;BMP280;35679;38.732;-121.358;2022-08-20T02:24:40;100084.13;;;31.89
49785;BMP280;35679;38.732;-121.358;2022-08-20T02:27:32;100084.13;;;31.89
49785;BMP280;35679;38.732;-121.358;2022-08-20T02:30:27;100077.84;;;31.89
49785;BMP280;35679;38.732;-121.358;2022-08-20T02:33:19;100086.03;;;31.89
49785;BMP280;35679;38.732;-121.358;2022-08-20T02:36:12;100089.06;;;31.87
49785;BMP280;35679;38.732;-121.358;2022-08-20T02:39:07;100098.06;;;31.88
49785;BMP280;35679;38.732;-121.358;2022-08-20T02:41:57;100097.25;;;31.87
49785;BMP280;35679;38.732;-121.358;2022-08-20T02:44:47;100108.50;;;31.86
49785;BMP280;35679;38.732;-121.358;2022-08-20T02:47:36;100107.69;;;31.85
49785;BMP280;35679;38.732;-121.358;2022-08-20T02:50:26;100108.00;;;31.84
49785;BMP280;35679;38.732;-121.358;2022-08-20T02:53:16;100114.59;;;31.83
49785;BMP280;35679;38.732;-121.358;2022-08-20T02:56:07;100111.06;;;31.82
49785;BMP280;35679;38.732;-121.358;2022-08-20T02:58:57;100116.84;;;31.81
49785;BMP280;35679;38.732;-121.358;2022-08-20T03:01:47;100109.28;;;31.78
49785;BMP280;35679;38.732;-121.358;2022-08-20T03:04:47;100120.19;;;31.78
49785;BMP280;35679;38.732;-121.358;2022-08-20T03:07:45;100120.53;;;31.76
49785;BMP280;35679;38.732;-121.358;2022-08-20T03:10:37;100120.84;;;31.75
49785;BMP280;35679;38.732;-121.358;2022-08-20T03:13:27;100129.38;;;31.73
49785;BMP280;35679;38.732;-121.358;2022-08-20T03:16:16;100119.91;;;31.71
49785;BMP280;35679;38.732;-121.358;2022-08-20T03:19:06;100123.75;;;31.70
49785;BMP280;35679;38.732;-121.358;2022-08-20T03:21:57;100124.38;;;31.67
49785;BMP280;35679;38.732;-121.358;2022-08-20T03:24:48;100128.22;;;31.66
49785;BMP280;35679;38.732;-121.358;2022-08-20T03:27:42;100137.53;;;31.65
49785;BMP280;35679;38.732;-121.358;2022-08-20T03:30:39;100137.81;;;31.63
49785;BMP280;35679;38.732;-121.358;2022-08-20T03:33:34;100139.75;;;31.63
49785;BMP280;35679;38.732;-121.358;2022-08-20T03:36:37;100135.41;;;31.62
49785;BMP280;35679;38.732;-121.358;2022-08-20T03:39:28;100140.09;;;31.61
49785;BMP280;35679;38.732;-121.358;2022-08-20T03:42:17;100141.19;;;31.60
49785;BMP280;35679;38.732;-121.358;2022-08-20T03:45:10;100141.53;;;31.59
49785;BMP280;35679;38.732;-121.358;2022-08-20T03:48:09;100141.03;;;31.57
49785;BMP280;35679;38.732;-121.358;2022-08-20T03:51:00;100141.84;;;31.57
49785;BMP280;35679;38.732;-121.358;2022-08-20T03:53:51;100141.34;;;31.55
49785;BMP280;35679;38.732;-121.358;2022-08-20T03:56:42;100134.28;;;31.54
49785;BMP280;35679;38.732;-121.358;2022-08-20T03:59:34;100140.88;;;31.53
49785;BMP280;35679;38.732;-121.358;2022-08-20T04:02:26;100136.84;;;31.51
49785;BMP280;35679;38.732;-121.358;2022-08-20T04:05:18;100140.72;;;31.50
49785;BMP280;35679;38.732;-121.358;2022-08-20T04:08:10;100144.53;;;31.49
49785;BMP280;35679;38.732;-121.358;2022-08-20T04:11:01;100140.97;;;31.48
49785;BMP280;35679;38.732;-121.358;2022-08-20T04:13:52;100138.56;;;31.47
49785;BMP280;35679;38.732;-121.358;2022-08-20T04:16:44;100144.03;;;31.47
49785;BMP280;35679;38.732;-121.358;2022-08-20T04:19:37;100146.28;;;31.45
49785;BMP280;35679;38.732;-121.358;2022-08-20T04:22:27;100140.34;;;31.43
49785;BMP280;35679;38.732;-121.358;2022-08-20T04:25:20;100149.63;;;31.42
49785;BMP280;35679;38.732;-121.358;2022-08-20T04:28:16;100149.97;;;31.40
49785;BMP280;35679;38.732;-121.358;2022-08-20T04:31:13;100149.00;;;31.36
49785;BMP280;35679;38.732;-121.358;2022-08-20T04:34:13;100154.72;;;31.35
49785;BMP280;35679;38.732;-121.358;2022-08-20T04:37:05;100149.59;;;31.33
49785;BMP280;35679;38.732;-121.358;2022-08-20T04:40:09;100149.94;;;31.32
49785;BMP280;35679;38.732;-121.358;2022-08-20T04:43:20;100152.16;;;31.30
49785;BMP280;35679;38.732;-121.358;2022-08-20T04:46:15;100151.69;;;31.28
49785;BMP280;35679;38.732;-121.358;2022-08-20T04:49:06;100151.19;;;31.26
49785;BMP280;35679;38.732;-121.358;2022-08-20T04:51:59;100152.28;;;31.25
49785;BMP280;35679;38.732;-121.358;2022-08-20T04:54:52;100154.56;;;31.23
49785;BMP280;35679;38.732;-121.358;2022-08-20T04:57:45;100151.34;;;31.21
49785;BMP280;35679;38.732;-121.358;2022-08-20T05:00:37;100157.09;;;31.20
49785;BMP280;35679;38.732;-121.358;2022-08-20T05:03:30;100153.88;;;31.18
49785;BMP280;35679;38.732;-121.358;2022-08-20T05:06:21;100155.31;;;31.15
49785;BMP280;35679;38.732;-121.358;2022-08-20T05:09:13;100153.69;;;31.14
49785;BMP280;35679;38.732;-121.358;2022-08-20T05:12:05;100165.25;;;31.11
49785;BMP280;35679;38.732;-121.358;2022-08-20T05:14:55;100160.91;;;31.10
49785;BMP280;35679;38.732;-121.358;2022-08-20T05:17:47;100162.34;;;31.08
49785;BMP280;35679;38.732;-121.358;2022-08-20T05:20:41;100168.09;;;31.06
49785;BMP280;35679;38.732;-121.358;2022-08-20T05:23:37;100171.16;;;31.05
49785;BMP280;35679;38.732;-121.358;2022-08-20T05:26:31;100166.31;;;31.02
49785;BMP280;35679;38.732;-121.358;2022-08-20T05:29:24;100175.63;;;31.01
49785;BMP280;35679;38.732;-121.358;2022-08-20T05:32:13;100168.56;;;31.00
49785;BMP280;35679;38.732;-121.358;2022-08-20T05:35:08;100174.63;;;30.97
49785;BMP280;35679;38.732;-121.358;2022-08-20T05:38:00;100177.63;;;30.95
49785;BMP280;35679;38.732;-121.358;2022-08-20T05:40:52;100183.41;;;30.94
49785;BMP280;35679;38.732;-121.358;2022-08-20T05:43:43;100188.34;;;30.92
49785;BMP280;35679;38.732;-121.358;2022-08-20T05:46:41;100187.88;;;30.90
49785;BMP280;35679;38.732;-121.358;2022-08-20T05:49:32;100183.84;;;30.87
49785;BMP280;35679;38.732;-121.358;2022-08-20T05:52:24;100188.47;;;30.87
49785;BMP280;35679;38.732;-121.358;2022-08-20T05:55:14;100184.97;;;30.86
49785;BMP280;35679;38.732;-121.358;2022-08-20T05:58:16;100184.47;;;30.84
49785;BMP280;35679;38.732;-121.358;2022-08-20T06:01:07;100181.28;;;30.82
49785;BMP280;35679;38.732;-121.358;2022-08-20T06:03:59;100180.75;;;30.80
49785;BMP280;35679;38.732;-121.358;2022-08-20T06:07:10;100179.47;;;30.78
49785;BMP280;35679;38.732;-121.358;2022-08-20T06:10:00;100177.38;;;30.75
49785;BMP280;35679;38.732;-121.358;2022-08-20T06:12:52;100174.16;;;30.73
49785;BMP280;35679;38.732;-121.358;2022-08-20T06:15:43;100168.53;;;30.69
49785;BMP280;35679;38.732;-121.358;2022-08-20T06:18:34;100175.06;;;30.68
49785;BMP280;35679;38.732;-121.358;2022-08-20T06:21:27;100171.88;;;30.66
49785;BMP280;35679;38.732;-121.358;2022-08-20T06:24:18;100173.00;;;30.65
49785;BMP280;35679;38.732;-121.358;2022-08-20T06:27:13;100177.94;;;30.63
49785;BMP280;35679;38.732;-121.358;2022-08-20T06:30:07;100170.41;;;30.60
49785;BMP280;35679;38.732;-121.358;2022-08-20T06:32:59;100164.75;;;30.57
49785;BMP280;35679;38.732;-121.358;2022-08-20T06:35:50;100175.97;;;30.56
49785;BMP280;35679;38.732;-121.358;2022-08-20T06:38:42;100190.19;;;30.53
49785;BMP280;35679;38.732;-121.358;2022-08-20T06:41:34;100189.72;;;30.51
49785;BMP280;35679;38.732;-121.358;2022-08-20T06:44:25;100187.31;;;30.49
49785;BMP280;35679;38.732;-121.358;2022-08-20T06:47:19;100186.28;;;30.45
49785;BMP280;35679;38.732;-121.358;2022-08-20T06:50:16;100190.94;;;30.45
49785;BMP280;35679;38.732;-121.358;2022-08-20T06:53:09;100190.44;;;30.43
49785;BMP280;35679;38.732;-121.358;2022-08-20T06:56:00;100183.97;;;30.39
49785;BMP280;35679;38.732;-121.358;2022-08-20T06:58:51;100183.19;;;30.38
49785;BMP280;35679;38.732;-121.358;2022-08-20T07:01:43;100181.88;;;30.36
49785;BMP280;35679;38.732;-121.358;2022-08-20T07:04:33;100190.66;;;30.33
49785;BMP280;35679;38.732;-121.358;2022-08-20T07:07:26;100180.72;;;30.28
49785;BMP280;35679;38.732;-121.358;2022-08-20T07:10:20;100180.19;;;30.26
49785;BMP280;35679;38.732;-121.358;2022-08-20T07:13:12;100178.28;;;30.27
49785;BMP280;35679;38.732;-121.358;2022-08-20T07:16:05;100181.31;;;30.25
49785;BMP280;35679;38.732;-121.358;2022-08-20T07:18:57;100180.00;;;30.23
49785;BMP280;35679;38.732;-121.358;2022-08-20T07:21:48;100188.47;;;30.21
49785;BMP280;35679;38.732;-121.358;2022-08-20T07:24:41;100180.13;;;30.18
49785;BMP280;35679;38.732;-121.358;2022-08-20T07:27:37;100180.44;;;30.16
49785;BMP280;35679;38.732;-121.358;2022-08-20T07:30:29;100181.03;;;30.13
49785;BMP280;35679;38.732;-121.358;2022-08-20T07:33:45;100177.84;;;30.11
49785;BMP280;35679;38.732;-121.358;2022-08-20T07:36:41;100173.81;;;30.09
49785;BMP280;35679;38.732;-121.358;2022-08-20T07:39:34;100184.19;;;30.07
49785;BMP280;35679;38.732;-121.358;2022-08-20T07:42:26;100186.44;;;30.05
49785;BMP280;35679;38.732;-121.358;2022-08-20T07:45:18;100173.41;;;30.02
49785;BMP280;35679;38.732;-121.358;2022-08-20T07:48:12;100181.91;;;30.00
49785;BMP280;35679;38.732;-121.358;2022-08-20T07:51:20;100184.94;;;29.99
49785;BMP280;35679;38.732;-121.358;2022-08-20T07:54:11;100187.47;;;29.95
49785;BMP280;35679;38.732;-121.358;2022-08-20T07:57:03;100183.75;;;29.91
49785;BMP280;35679;38.732;-121.358;2022-08-20T07:59:54;100184.34;;;29.88
49785;BMP280;35679;38.732;-121.358;2022-08-20T08:02:47;100190.38;;;29.86
49785;BMP280;35679;38.732;-121.358;2022-08-20T08:05:40;100193.41;;;29.84
49785;BMP280;35679;38.732;-121.358;2022-08-20T08:08:33;100196.41;;;29.83
49785;BMP280;35679;38.732;-121.358;2022-08-20T08:11:27;100196.50;;;29.78
49785;BMP280;35679;38.732;-121.358;2022-08-20T08:14:22;100195.22;;;29.75
49785;BMP280;35679;38.732;-121.358;2022-08-20T08:17:17;100202.06;;;29.73
49785;BMP280;35679;38.732;-121.358;2022-08-20T08:20:09;100196.63;;;29.73
49785;BMP280;35679;38.732;-121.358;2022-08-20T08:23:02;100195.63;;;29.69
49785;BMP280;35679;38.732;-121.358;2022-08-20T08:25:52;100195.63;;;29.69
49785;BMP280;35679;38.732;-121.358;2022-08-20T08:28:44;100193.22;;;29.67
49785;BMP280;35679;38.732;-121.358;2022-08-20T08:31:36;100192.69;;;29.65
49785;BMP280;35679;38.732;-121.358;2022-08-20T08:34:34;100185.75;;;29.59
49785;BMP280;35679;38.732;-121.358;2022-08-20T08:37:27;100181.94;;;29.60
49785;BMP280;35679;38.732;-121.358;2022-08-20T08:40:18;100181.47;;;29.58
49785;BMP280;35679;38.732;-121.358;2022-08-20T08:43:13;100195.31;;;29.57
49785;BMP280;35679;38.732;-121.358;2022-08-20T08:46:10;100183.97;;;29.55
49785;BMP280;35679;38.732;-121.358;2022-08-20T08:49:00;100180.75;;;29.53
49785;BMP280;35679;38.732;-121.358;2022-08-20T08:54:52;100183.56;;;29.48
49785;BMP280;35679;38.732;-121.358;2022-08-20T08:57:46;100185.75;;;29.46
49785;BMP280;35679;38.732;-121.358;2022-08-20T09:00:39;100181.75;;;29.43
49785;BMP280;35679;38.732;-121.358;2022-08-20T09:03:46;100179.34;;;29.42
49785;BMP280;35679;38.732;-121.358;2022-08-20T09:06:40;100183.16;;;29.41
49785;BMP280;35679;38.732;-121.358;2022-08-20T09:09:41;100181.84;;;29.38
49785;BMP280;35679;38.732;-121.358;2022-08-20T09:12:32;100191.91;;;29.38
49785;BMP280;35679;38.732;-121.358;2022-08-20T09:15:24;100178.13;;;29.34
49785;BMP280;35679;38.732;-121.358;2022-08-20T09:18:17;100192.03;;;29.33
49785;BMP280;35679;38.732;-121.358;2022-08-20T09:21:11;100193.41;;;29.30
49785;BMP280;35679;38.732;-121.358;2022-08-20T09:24:04;100199.94;;;29.29
49785;BMP280;35679;38.732;-121.358;2022-08-20T09:26:56;100203.28;;;29.26
49785;BMP280;35679;38.732;-121.358;2022-08-20T09:29:47;100207.09;;;29.25
49785;BMP280;35679;38.732;-121.358;2022-08-20T09:32:40;100213.94;;;29.23
49785;BMP280;35679;38.732;-121.358;2022-08-20T09:35:32;100216.97;;;29.21
49785;BMP280;35679;38.732;-121.358;2022-08-20T09:38:22;100214.81;;;29.18
49785;BMP280;35679;38.732;-121.358;2022-08-20T09:41:14;100222.97;;;29.18
49785;BMP280;35679;38.732;-121.358;2022-08-20T09:44:05;100211.09;;;29.15
49785;BMP280;35679;38.732;-121.358;2022-08-20T09:46:57;100221.97;;;29.15
49785;BMP280;35679;38.732;-121.358;2022-08-20T09:49:47;100218.72;;;29.13
49785;BMP280;35679;38.732;-121.358;2022-08-20T09:52:42;100220.97;;;29.11
49785;BMP280;35679;38.732;-121.358;2022-08-20T09:55:44;100217.72;;;29.09
49785;BMP280;35679;38.732;-121.358;2022-08-20T09:58:43;100218.34;;;29.06
49785;BMP280;35679;38.732;-121.358;2022-08-20T10:01:37;100220.53;;;29.04
49785;BMP280;35679;38.732;-121.358;2022-08-20T10:04:28;100221.63;;;29.03
49785;BMP280;35679;38.732;-121.358;2022-08-20T10:07:18;100216.28;;;28.98
49785;BMP280;35679;38.732;-121.358;2022-08-20T10:10:12;100222.56;;;28.98
49785;BMP280;35679;38.732;-121.358;2022-08-20T10:13:04;100223.66;;;28.97
49785;BMP280;35679;38.732;-121.358;2022-08-20T10:16:01;100221.25;;;28.96
49785;BMP280;35679;38.732;-121.358;2022-08-20T10:18:52;100221.81;;;28.93
49785;BMP280;35679;38.732;-121.358;2022-08-20T10:21:44;100227.56;;;28.91
49785;BMP280;35679;38.732;-121.358;2022-08-20T10:24:36;100220.50;;;28.90
49785;BMP280;35679;38.732;-121.358;2022-08-20T10:27:30;100223.00;;;28.87
49785;BMP280;35679;38.732;-121.358;2022-08-20T10:30:21;100217.09;;;28.85
49785;BMP280;35679;38.732;-121.358;2022-08-20T10:33:12;100224.41;;;28.84
49785;BMP280;35679;38.732;-121.358;2022-08-20T10:36:13;100223.09;;;28.82
49785;BMP280;35679;38.732;-121.358;2022-08-20T10:39:04;100225.31;;;28.80
49785;BMP280;35679;38.732;-121.358;2022-08-20T10:41:55;100219.69;;;28.76
49785;BMP280;35679;38.732;-121.358;2022-08-20T10:44:46;100230.53;;;28.76
49785;BMP280;35679;38.732;-121.358;2022-08-20T10:47:38;100231.91;;;28.74
49785;BMP280;35679;38.732;-121.358;2022-08-20T10:50:28;100227.88;;;28.71
49785;BMP280;35679;38.732;-121.358;2022-08-20T10:53:19;100228.75;;;28.67
49785;BMP280;35679;38.732;-121.358;2022-08-20T10:56:10;100234.19;;;28.67
49785;BMP280;35679;38.732;-121.358;2022-08-20T10:59:02;100230.38;;;28.68
49785;BMP280;35679;38.732;-121.358;2022-08-20T11:01:53;100239.41;;;28.63
49785;BMP280;35679;38.732;-121.358;2022-08-20T11:04:44;100245.13;;;28.62
49785;BMP280;35679;38.732;-121.358;2022-08-20T11:07:38;100243.50;;;28.61
49785;BMP280;35679;38.732;-121.358;2022-08-20T11:10:44;100245.72;;;28.59
49785;BMP280;35679;38.732;-121.358;2022-08-20T11:13:35;100242.78;;;28.55
49785;BMP280;35679;38.732;-121.358;2022-08-20T11:16:26;100244.69;;;28.55
49785;BMP280;35679;38.732;-121.358;2022-08-20T11:19:16;100246.91;;;28.53
49785;BMP280;35679;38.732;-121.358;2022-08-20T11:22:10;100259.97;;;28.51
49785;BMP280;35679;38.732;-121.358;2022-08-20T11:25:02;100251.31;;;28.49
49785;BMP280;35679;38.732;-121.358;2022-08-20T11:27:54;100252.19;;;28.45
49785;BMP280;35679;38.732;-121.358;2022-08-20T11:30:47;100255.69;;;28.45
49785;BMP280;35679;38.732;-121.358;2022-08-20T11:33:40;100254.13;;;28.44
49785;BMP280;35679;38.732;-121.358;2022-08-20T11:36:31;100253.88;;;28.41
49785;BMP280;35679;38.732;-121.358;2022-08-20T11:39:22;100262.81;;;28.41
49785;BMP280;35679;38.732;-121.358;2022-08-20T11:42:14;100263.13;;;28.40
49785;BMP280;35679;38.732;-121.358;2022-08-20T11:45:07;100256.88;;;28.39
49785;BMP280;35679;38.732;-121.358;2022-08-20T11:47:59;100259.09;;;28.37
49785;BMP280;35679;38.732;-121.358;2022-08-20T11:50:50;100254.22;;;28.34
49785;BMP280;35679;38.732;-121.358;2022-08-20T11:53:45;100256.47;;;28.32
49785;BMP280;35679;38.732;-121.358;2022-08-20T11:56:36;100258.34;;;28.32
49785;BMP280;35679;38.732;-121.358;2022-08-20T11:59:33;100266.00;;;28.30
49785;BMP280;35679;38.732;-121.358;2022-08-20T12:02:25;100263.03;;;28.26
49785;BMP280;35679;38.732;-121.358;2022-08-20T12:05:21;100282.03;;;28.26
49785;BMP280;35679;38.732;-121.358;2022-08-20T12:08:13;100282.63;;;28.23
49785;BMP280;35679;38.732;-121.358;2022-08-20T12:11:16;100287.25;;;28.23
49785;BMP280;35679;38.732;-121.358;2022-08-20T12:14:06;100285.13;;;28.20
49785;BMP280;35679;38.732;-121.358;2022-08-20T12:16:57;100292.75;;;28.18
49785;BMP280;35679;38.732;-121.358;2022-08-20T12:19:47;100300.06;;;28.17
49785;BMP280;35679;38.732;-121.358;2022-08-20T12:22:38;100302.53;;;28.14
49785;BMP280;35679;38.732;-121.358;2022-08-20T12:25:30;100299.00;;;28.13
49785;BMP280;35679;38.732;-121.358;2022-08-20T12:28:21;100299.28;;;28.12
49785;BMP280;35679;38.732;-121.358;2022-08-20T12:31:13;100296.88;;;28.10
49785;BMP280;35679;38.732;-121.358;2022-08-20T12:34:06;100306.09;;;28.09
49785;BMP280;35679;38.732;-121.358;2022-08-20T12:37:12;100304.00;;;28.06
49785;BMP280;35679;38.732;-121.358;2022-08-20T12:40:08;100314.31;;;28.04
49785;BMP280;35679;38.732;-121.358;2022-08-20T12:43:02;100311.91;;;28.03
49785;BMP280;35679;38.732;-121.358;2022-08-20T12:45:52;100314.06;;;28.01
49785;BMP280;35679;38.732;-121.358;2022-08-20T12:48:44;100308.16;;;27.99
49785;BMP280;35679;38.732;-121.358;2022-08-20T12:51:35;100316.59;;;27.97
49785;BMP280;35679;38.732;-121.358;2022-08-20T12:54:27;100325.00;;;27.96
49785;BMP280;35679;38.732;-121.358;2022-08-20T12:57:31;100327.19;;;27.94
49785;BMP280;35679;38.732;-121.358;2022-08-20T13:00:34;100316.63;;;27.92
49785;BMP280;35679;38.732;-121.358;2022-08-20T13:03:31;100326.66;;;27.92
49785;BMP280;35679;38.732;-121.358;2022-08-20T13:06:33;100330.78;;;27.89
49785;BMP280;35679;38.732;-121.358;2022-08-20T13:09:24;100330.25;;;27.87
49785;BMP280;35679;38.732;-121.358;2022-08-20T13:12:18;100326.19;;;27.85
49785;BMP280;35679;38.732;-121.358;2022-08-20T13:15:11;100322.69;;;27.84
49785;BMP280;35679;38.732;-121.358;2022-08-20T13:18:05;100328.41;;;27.83
49785;BMP280;35679;38.732;-121.358;2022-08-20T13:20:56;100331.41;;;27.82
49785;BMP280;35679;38.732;-121.358;2022-08-20T13:23:48;100327.88;;;27.81
49785;BMP280;35679;38.732;-121.358;2022-08-20T13:26:39;100343.66;;;27.79
49785;BMP280;35679;38.732;-121.358;2022-08-20T13:29:29;100340.41;;;27.77
49785;BMP280;35679;38.732;-121.358;2022-08-20T13:32:23;100347.22;;;27.75
49785;BMP280;35679;38.732;-121.358;2022-08-20T13:35:14;100355.34;;;27.75
49785;BMP280;35679;38.732;-121.358;2022-08-20T13:38:04;100355.34;;;27.75
49785;BMP280;35679;38.732;-121.358;2022-08-20T13:40:56;100354.81;;;27.73
49785;BMP280;35679;38.732;-121.358;2022-08-20T13:43:48;100364.31;;;27.70
49785;BMP280;35679;38.732;-121.358;2022-08-20T13:46:40;100372.47;;;27.70
49785;BMP280;35679;38.732;-121.358;2022-08-20T13:49:30;100380.88;;;27.69
49785;BMP280;35679;38.732;-121.358;2022-08-20T13:52:22;100381.19;;;27.67
49785;BMP280;35679;38.732;-121.358;2022-08-20T13:55:18;100382.28;;;27.66
49785;BMP280;35679;38.732;-121.358;2022-08-20T13:58:09;100386.06;;;27.65
49785;BMP280;35679;38.732;-121.358;2022-08-20T14:01:00;100385.28;;;27.65
49785;BMP280;35679;38.732;-121.358;2022-08-20T14:03:52;100387.44;;;27.63
49785;BMP280;35679;38.732;-121.358;2022-08-20T14:06:43;100387.75;;;27.61
49785;BMP280;35679;38.732;-121.358;2022-08-20T14:09:37;100393.44;;;27.60
49785;BMP280;35679;38.732;-121.358;2022-08-20T14:12:29;100401.88;;;27.58
49785;BMP280;35679;38.732;-121.358;2022-08-20T14:15:20;100403.75;;;27.58
49785;BMP280;35679;38.732;-121.358;2022-08-20T14:18:11;100403.75;;;27.58
49785;BMP280;35679;38.732;-121.358;2022-08-20T14:21:04;100403.22;;;27.56
49785;BMP280;35679;38.732;-121.358;2022-08-20T14:23:54;100412.44;;;27.55
49785;BMP280;35679;38.732;-121.358;2022-08-20T14:26:48;100414.06;;;27.56
49785;BMP280;35679;38.732;-121.358;2022-08-20T14:29:42;100412.72;;;27.53
49785;BMP280;35679;38.732;-121.358;2022-08-20T14:32:34;100419.53;;;27.51
49785;BMP280;35679;38.732;-121.358;2022-08-20T14:35:25;100416.53;;;27.52
49785;BMP280;35679;38.732;-121.358;2022-08-20T14:38:17;100420.03;;;27.53
49785;BMP280;35679;38.732;-121.358;2022-08-20T14:41:07;100414.91;;;27.51
49785;BMP280;35679;38.732;-121.358;2022-08-20T14:43:57;100411.41;;;27.51
49785;BMP280;35679;38.732;-121.358;2022-08-20T14:46:52;100413.28;;;27.50
49785;BMP280;35679;38.732;-121.358;2022-08-20T14:49:44;100411.41;;;27.51
49785;BMP280;35679;38.732;-121.358;2022-08-20T14:52:37;100418.16;;;27.48
49785;BMP280;35679;38.732;-121.358;2022-08-20T14:55:34;100417.91;;;27.50
49785;BMP280;35679;38.732;-121.358;2022-08-20T14:58:30;100408.16;;;27.49
49785;BMP280;35679;38.732;-121.358;2022-08-20T15:01:22;100428.25;;;27.43
49785;BMP280;35679;38.732;-121.358;2022-08-20T15:04:13;100424.16;;;27.45
49785;BMP280;35679;38.732;-121.358;2022-08-20T15:07:11;100432.59;;;27.44
49785;BMP280;35679;38.732;-121.358;2022-08-20T15:10:11;100437.72;;;27.45
49785;BMP280;35679;38.732;-121.358;2022-08-20T15:13:03;100445.06;;;27.45
49785;BMP280;35679;38.732;-121.358;2022-08-20T15:15:55;100449.94;;;27.43
49785;BMP280;35679;38.732;-121.358;2022-08-20T15:18:45;100459.16;;;27.42
49785;BMP280;35679;38.732;-121.358;2022-08-20T15:21:41;100454.28;;;27.44
49785;BMP280;35679;38.732;-121.358;2022-08-20T15:24:33;100453.44;;;27.43
49785;BMP280;35679;38.732;-121.358;2022-08-20T15:27:25;100463.47;;;27.43
49785;BMP280;35679;38.732;-121.358;2022-08-20T15:30:19;100465.41;;;27.42
49785;BMP280;35679;38.732;-121.358;2022-08-20T15:33:10;100469.69;;;27.43
49785;BMP280;35679;38.732;-121.358;2022-08-20T15:36:05;100464.53;;;27.47
49785;BMP280;35679;38.732;-121.358;2022-08-20T15:38:56;100464.53;;;27.47
49785;BMP280;35679;38.732;-121.358;2022-08-20T15:41:47;100461.31;;;27.45
49785;BMP280;35679;38.732;-121.358;2022-08-20T15:44:40;100474.03;;;27.44
49785;BMP280;35679;38.732;-121.358;2022-08-20T15:48:29;100459.69;;;27.44
49785;BMP280;35679;38.732;-121.358;2022-08-20T15:53:50;100461.31;;;27.45